EW3841 Weather Reports


Display with metric or nautical units.
time (UTC)temp
F
wind
direction
speed
MPH
gust
MPH
rain 1hr
in
rain 24hr
in
rain mn
in
humidity
%
barometer
mb
20190721064554 57 355 0.0 0.0 0.02 0.25 0.25 61 1005.2
20190721063123 57 355 0.0 0.0 0.02 0.25 0.25 62 1005.4
20190721061529 58 355 0.0 0.0 0.00 0.24 0.24 62 1005.4
20190721060024 58 355 0.0 0.0 0.02 0.24 0.24 61 1005.4
20190721054538 59 355 0.0 0.0 0.02 0.24 0.24 58 1005.4
20190721053043 59 355 0.0 0.0 0.02 0.24 0.24 59 1005.5
20190721051609 59 355 0.0 0.0 0.03 0.24 0.24 55 1005.6
20190721050028 60 355 0.0 0.0 0.01 0.21 0.21 56 1005.7
20190721044542 60 355 0.0 0.0 0.01 0.21 0.21 54 1005.6
20190721043038 61 355 0.0 0.0 0.01 0.21 0.21 53 1005.6
20190721041555 61 355 0.0 0.0 0.02 0.20 0.20 53 1005.5
20190721040038 62 355 0.0 0.0 0.02 0.20 0.20 53 1005.5
20190721034523 63 355 0.0 0.0 0.02 0.20 0.20 54 1005.5
20190721033033 64 355 0.0 0.0 0.02 0.20 0.20 50 1005.7
20190721031522 65 355 0.0 0.0 0.00 0.18 0.18 50 1005.8
20190721030030 66 355 0.0 0.0 0.00 0.18 0.18 50 1006.0
20190721024539 68 355 0.0 0.0 0.00 0.18 0.18 50 1006.0
20190721023041 69 355 0.0 0.0 0.00 0.18 0.18 49 1006.1
20190721021525 70 355 0.0 0.0 0.00 0.18 0.18 50 1006.0
20190721020019 71 360 0.0 1.0 0.00 0.18 0.18 46 1006.1
20190721014513 71 30 0.0 1.0 0.00 0.19 0.18 45 1006.2
20190721013021 73 197 0.0 3.0 0.00 0.19 0.18 42 1006.5
20190721011514 74 19 0.0 1.0 0.00 0.19 0.18 41 1006.6
20190721010004 76 156 0.0 3.0 0.00 0.19 0.18 37 1006.8
20190721004503 78 132 0.0 1.0 0.00 0.19 0.18 35 1007.0
20190721003215 77 90 0.0 1.0 0.00 0.19 0.18 35 1007.2
20190721001731 77 142 0.0 0.0 0.00 0.19 0.18 33 1007.2
20190721000319 77 163 0.0 0.0 0.00 0.19 0.18 36 1007.4
20190720234658 77 89 0.0 0.0 0.00 0.19 0.18 40 1007.6
20190720233118 77 214 0.0 1.0 0.00 0.19 0.18 40 1007.6
20190720231638 76 109 0.0 1.0 0.00 0.19 0.18 43 1007.6
20190720230303 75 109 0.0 2.0 0.00 0.19 0.18 43 1007.8
20190720224636 75 128 0.0 2.0 0.00 0.19 0.18 45 1007.9
20190720223204 75 146 0.0 1.0 0.00 0.19 0.18 46 1008.1
20190720221631 75 168 0.0 2.0 0.00 0.19 0.18 45 1008.1
20190720220126 74 125 0.0 2.0 0.00 0.19 0.18 49 1008.3
20190720214615 73 82 0.0 2.0 0.00 0.30 0.18 49 1008.4
20190720213051 72 69 0.0 2.0 0.00 0.30 0.18 52 1008.3
20190720211541 72 79 0.0 3.0 0.00 0.30 0.18 51 1008.4
20190720210057 71 143 0.0 2.0 0.00 0.30 0.18 53 1008.4
20190720204555 70 193 1.0 4.0 0.00 0.32 0.18 53 1008.6
20190720203034 69 134 0.0 4.0 0.00 0.32 0.18 55 1008.7
20190720201525 68 135 0.0 1.0 0.00 0.32 0.18 56 1008.8
20190720200027 67 92 0.0 2.0 0.00 0.32 0.18 57 1008.8
20190720194509 66 223 0.0 3.0 0.00 0.32 0.18 58 1009.1
20190720193006 65 99 0.0 3.0 0.00 0.32 0.18 60 1009.1
20190720191753 64 83 0.0 4.0 0.00 0.32 0.18 61 1009.2
20190720190228 63 99 0.0 3.0 0.00 0.32 0.18 63 1009.3
20190720184714 63 199 0.0 4.0 0.00 0.32 0.18 62 1009.3
20190720183145 62 202 0.0 3.0 0.00 0.32 0.18 63 1009.6
20190720181812 61 209 0.0 3.0 0.00 0.32 0.18 64 1009.7
20190720180106 61 71 0.0 4.0 0.00 0.32 0.18 66 1009.8
20190720174624 60 216 0.0 3.0 0.00 6.03 0.18 66 1009.8
20190720173116 59 155 0.0 3.0 0.00 6.03 0.18 70 1010.0
20190720171636 57 197 0.0 2.0 0.00 6.03 0.18 73 1010.0
20190720170055 56 103 0.0 1.0 0.00 6.03 0.18 76 1010.1
20190720164534 55 119 0.0 2.0 0.00 6.30 0.18 79 1010.1
20190720163055 53 96 0.0 2.0 0.00 6.30 0.18 82 1010.2
20190720161600 53 119 0.0 1.0 0.04 6.30 0.18 83 1010.1
20190720160024 52 127 0.0 1.0 0.17 6.30 0.18 85 1010.1
20190720154527 51 66 0.0 0.0 0.17 6.85 0.18 85 1010.1
20190720153044 51 64 0.0 0.0 0.17 6.85 0.18 85 1009.9
20190720151606 50 80 0.0 1.0 0.13 6.81 0.14 85 1010.0
20190720150008 50 136 0.0 0.0 0.01 6.69 0.02 87 1010.0
20190720144533 49 136 0.0 0.0 0.00 1.28 0.01 90 1009.8
20190720143023 48 136 0.0 0.0 0.00 1.28 0.01 90 1009.7
20190720141504 48 136 0.0 0.0 0.00 1.28 0.01 90 1009.6
20190720140021 47 136 0.0 0.0 0.00 1.54 0.01 89 1009.7
20190720133158 47 136 0.0 0.0 0.00 1.54 0.01 87 1009.6
20190720131852 47 136 0.0 0.0 0.00 1.54 0.01 87 1009.6
20190720130153 47 136 0.0 0.0 0.00 1.54 0.01 87 1009.6
20190720124737 47 136 0.0 0.0 0.00 1.61 0.01 86 1009.6
20190720123211 47 136 0.0 0.0 0.00 1.61 0.01 86 1009.7
20190720121653 47 136 0.0 0.0 0.00 1.61 0.01 86 1009.6
20190720120216 48 136 0.0 0.0 0.00 1.61 0.01 85 1009.6
20190720114619 48 136 0.0 0.0 0.01 1.61 0.01 85 1009.5
20190720113132 48 136 0.0 0.0 0.01 1.61 0.01 86 1009.6
20190720111653 48 136 0.0 0.0 0.01 1.61 0.01 85 1009.5
20190720110203 48 136 0.0 0.0 0.01 1.61 0.01 84 1009.4
20190720104641 48 136 0.0 0.0 0.00 1.66 0.00 84 1009.4
20190720103134 48 136 0.0 0.0 0.00 1.66 0.00 84 1009.5
20190720101725 48 136 0.0 0.0 0.00 1.66 0.00 84 1009.4
20190720100235 48 136 0.0 0.0 0.00 1.66 0.00 84 1009.4
20190720094628 48 136 0.0 0.0 0.00 1.68 0.00 84 1009.3
20190720093132 48 136 0.0 0.0 0.00 1.68 0.00 84 1009.3
20190720091655 49 136 0.0 0.0 0.00 1.68 0.00 83 1009.3
20190720090139 49 136 0.0 0.0 0.00 1.68 0.00 83 1009.4
20190720084606 49 136 0.0 0.0 0.00 1.70 0.00 83 1009.4
20190720083143 49 136 0.0 0.0 0.00 1.70 0.00 83 1009.5
20190720081622 49 136 0.0 0.0 0.00 1.70 0.00 83 1009.4
20190720080117 49 136 0.0 0.0 0.00 1.70 0.00 82 1009.7
20190720074613 49 136 0.0 0.0 0.00 1.70 0.00 82 1009.6
20190720071644 49 136 0.0 0.0 0.00 1.70 0.00 81 1009.7
20190720070127 50 136 0.0 0.0 0.00 1.70 0.00 79 1009.7